KAFW/AFW METAR and TAF weather

Enter ICAO airport designator
Station Type Date Time Source
KAFW METAR 2024/06/16 08:53 UTC NOAA

KAFW 160853Z 18014G21KT 10SM CLR 27/21 A2984 RMK AO2 SLP089 T02670211 56009


Station Type Date Time Source
KAFW Decoded METAR 2024/06/16 08:53 UTC NOAA

FORT WORTH ALLIANCE AIRPORT, TX, United States (KAFW) 32-59N 097-19W 233M
Jun 16, 2024 - 04:53 AM EDT / 2024.06.16 0853 UTC
Wind: from the S (180 degrees) at 16 MPH (14 KT) gusting to 24 MPH (21 KT):0
Visibility: 10 mile(s):0
Sky conditions: clear
Temperature: 80.1 F (26.7 C)
Dew Point: 70.0 F (21.1 C)
Relative Humidity: 71%
Pressure (altimeter): 29.84 in. Hg (1010 hPa)
Pressure tendency: 0.03 inches (0.9 hPa) lower than three hours ago
ob: KAFW 160853Z 18014G21KT 10SM CLR 27/21 A2984 RMK AO2 SLP089 T02670211 56009
cycle: 9

Station Type Date Time Source
KAFW TAF 2024/06/16 09:33 UTC NOAA